Adamantios Korais — SVAE3 — position and weather

sailwx.info

Track history (hours):
 
Tides and Currents Weather Stations Pressure Air Temp Water Temp Dewpoint Dewpoint Depression Visibility Wind Speed Wind Dir Waves Ship Positions

Adamantios Korais

Last reported at 2018-Apr-03 11:36 UTC. Time now 2018-May-27 11:46 UTC.
Position N 37°57' E 023°38'.
Warning: this ship's position is 54 days out of date.

Length 100 m; draft 4.6 m.

Type: Passenger vessel. MMSI: 239410300.

Date/timePositionNaut miles runAvg speedWind from/ knotsBaromVisibWave heightAir tempDewpointWater temp
2018-Apr-03 11:36N 37°57' E 023°38'0 0.1
2018-Apr-03 11:30N 37°57' E 023°38'0 0.0
2018-Apr-03 11:00N 37°57' E 023°38'0 0.0
2018-Apr-03 10:29N 37°57' E 023°38'0 0.0
2018-Apr-03 10:00N 37°57' E 023°38'0 0.0
2018-Apr-03 09:30N 37°57' E 023°38'0 0.0
2018-Apr-03 09:00N 37°57' E 023°38'0 0.0
2018-Apr-03 08:31N 37°57' E 023°38'0 0.0
2018-Apr-03 08:00N 37°57' E 023°38'0 0.0
2018-Apr-03 07:31N 37°57' E 023°38'0 0.0
2018-Apr-03 07:00N 37°57' E 023°38'0 0.0
2018-Apr-03 06:30N 37°57' E 023°38'0 0.0
2018-Apr-03 06:00N 37°57' E 023°38'0 0.0
2018-Apr-03 05:30N 37°57' E 023°38'3 7.0
2018-Apr-03 05:01N 37°53' E 023°38'917.2
2018-Apr-03 04:30N 37°45' E 023°43'7 0.3
2018-Apr-02 05:40N 37°38' E 023°46'316.5
2018-Apr-02 05:28N 37°41' E 023°43'816.7
2018-Apr-02 05:01N 37°48' E 023°38'816.2
2018-Apr-02 04:31N 37°56' E 023°37'1 2.8
2018-Apr-02 04:00N 37°57' E 023°38'0 0.0
2018-Apr-02 03:30N 37°57' E 023°38'0 0.0
2018-Apr-02 03:00N 37°57' E 023°38'0 0.0
2018-Apr-02 02:30N 37°57' E 023°38'0 0.0
2018-Apr-02 02:01N 37°57' E 023°38'0 0.0
2018-Apr-02 01:30N 37°57' E 023°38'0 0.0
2018-Apr-02 01:00N 37°57' E 023°38'0 0.0
2018-Apr-02 00:30N 37°57' E 023°38'0 0.0
2018-Apr-02 00:00N 37°57' E 023°38'0 0.0
2018-Apr-01 23:30N 37°57' E 023°38'0 0.0
2018-Apr-01 23:00N 37°57' E 023°38'0 0.0
2018-Apr-01 22:30N 37°57' E 023°38'0 0.0
2018-Apr-01 22:00N 37°57' E 023°38'0 0.0
2018-Apr-01 21:31N 37°57' E 023°38'0 0.0
2018-Apr-01 21:00N 37°57' E 023°38'0 0.0
2018-Apr-01 20:30N 37°57' E 023°38'0 0.0
2018-Apr-01 20:00N 37°57' E 023°38'0 0.0
2018-Apr-01 19:30N 37°57' E 023°38'1 2.9
2018-Apr-01 19:00N 37°56' E 023°37'714.5
2018-Apr-01 18:30N 37°49' E 023°41'713.9
2018-Apr-01 18:00N 37°43' E 023°44'3 0.1
2018-Mar-31 06:11N 37°40' E 023°43'316.1
2018-Mar-31 05:59N 37°42' E 023°41'816.2
2018-Mar-31 05:30N 37°50' E 023°37'714.0
2018-Mar-31 05:00N 37°57' E 023°38'0 0.1
2018-Mar-31 04:30N 37°57' E 023°38'0 0.0
2018-Mar-31 04:00N 37°57' E 023°38'0 0.0
2018-Mar-31 03:31N 37°57' E 023°38'1 2.8
2018-Mar-31 03:00N 37°56' E 023°37'714.2
2018-Mar-31 02:30N 37°50' E 023°41'11 0.8
2018-Mar-30 13:32N 37°39' E 023°44'115.8
2018-Mar-30 13:30N 37°40' E 023°43'816.0
2018-Mar-30 13:00N 37°47' E 023°39'815.6
2018-Mar-30 12:30N 37°54' E 023°37'2 4.5
2018-Mar-30 12:00N 37°57' E 023°38'0 0.0
2018-Mar-30 11:30N 37°57' E 023°38'0 0.0
2018-Mar-30 11:00N 37°57' E 023°38'0 0.0
2018-Mar-30 10:30N 37°57' E 023°38'0 0.0
2018-Mar-30 10:00N 37°57' E 023°38'0 0.0
2018-Mar-30 09:30N 37°57' E 023°38'0 0.0
2018-Mar-30 09:00N 37°57' E 023°38'0 0.0
2018-Mar-30 08:30N 37°57' E 023°38'0 0.0
2018-Mar-30 08:00N 37°57' E 023°38'0 0.0
2018-Mar-30 07:30N 37°57' E 023°38'0 0.0
2018-Mar-30 07:00N 37°57' E 023°38'0 0.0
2018-Mar-30 06:30N 37°57' E 023°38'0 0.0
2018-Mar-30 06:00N 37°57' E 023°38'0 0.0
2018-Mar-30 05:30N 37°57' E 023°38'0 0.0
2018-Mar-30 05:00N 37°57' E 023°38'0 0.0
2018-Mar-30 04:30N 37°57' E 023°38'0 0.0
2018-Mar-30 04:00N 37°57' E 023°38'0 0.0
2018-Mar-30 03:30N 37°57' E 023°38'0 0.0
2018-Mar-30 02:58N 37°57' E 023°38'0 0.0
2018-Mar-30 02:30N 37°57' E 023°38'0 0.0
2018-Mar-30 02:00N 37°57' E 023°38'0 0.0
2018-Mar-30 01:31N 37°57' E 023°38'0 0.0
2018-Mar-30 01:01N 37°57' E 023°38'0 0.0
2018-Mar-30 00:31N 37°57' E 023°38'0 0.0
2018-Mar-30 00:00N 37°57' E 023°38'0 0.0
2018-Mar-29 23:31N 37°57' E 023°38'0 0.0
2018-Mar-29 22:58N 37°57' E 023°38'0 0.0
2018-Mar-29 22:30N 37°57' E 023°38'0 0.0
2018-Mar-29 22:01N 37°57' E 023°38'0 0.0
2018-Mar-29 21:30N 37°57' E 023°38'0 0.0
2018-Mar-29 21:00N 37°57' E 023°38'0 0.0
2018-Mar-29 20:30N 37°57' E 023°38'0 0.0
2018-Mar-29 20:00N 37°57' E 023°38'0 0.0
2018-Mar-29 19:30N 37°57' E 023°38'0 0.0
2018-Mar-29 19:01N 37°57' E 023°38'0 0.0
2018-Mar-29 18:30N 37°57' E 023°38'4 8.4
2018-Mar-29 18:00N 37°52' E 023°39'817.0
2018-Mar-29 17:30N 37°45' E 023°43'6 0.2
2018-Mar-28 14:46N 37°39' E 023°45'415.2
2018-Mar-28 14:30N 37°42' E 023°41'816.0
2018-Mar-28 14:00N 37°50' E 023°38'713.8
2018-Mar-28 13:30N 37°56' E 023°38'0 0.3
2018-Mar-28 13:00N 37°57' E 023°38'0 0.0
2018-Mar-28 12:30N 37°57' E 023°38'0 0.0
2018-Mar-28 12:01N 37°57' E 023°38'0 0.0
2018-Mar-28 11:30N 37°57' E 023°38'0 0.0
2018-Mar-28 11:00N 37°57' E 023°38'0 0.0
2018-Mar-28 10:31N 37°57' E 023°38'0 0.0
2018-Mar-28 10:01N 37°57' E 023°38'0 0.0
2018-Mar-28 09:30N 37°57' E 023°38'0 0.0
2018-Mar-28 09:00N 37°57' E 023°38'0 0.0
2018-Mar-28 08:30N 37°57' E 023°38'0 0.0
2018-Mar-28 08:00N 37°57' E 023°38'0 0.0
2018-Mar-28 07:30N 37°57' E 023°38'0 0.0
2018-Mar-28 07:00N 37°57' E 023°38'0 0.0
2018-Mar-28 06:30N 37°57' E 023°38'0 0.0
2018-Mar-28 06:00N 37°57' E 023°38'0 0.0
2018-Mar-28 05:31N 37°57' E 023°38'0 0.0
2018-Mar-28 05:00N 37°57' E 023°38'0 0.0
2018-Mar-28 04:27N 37°57' E 023°38'0 0.0
2018-Mar-28 04:00N 37°57' E 023°38'0 0.0
2018-Mar-28 03:30N 37°57' E 023°38'0 0.0
2018-Mar-28 03:01N 37°57' E 023°38'0 0.0
2018-Mar-28 02:29N 37°57' E 023°38'0 0.0
2018-Mar-28 02:00N 37°57' E 023°38'0 0.0
2018-Mar-28 01:28N 37°57' E 023°38'0 0.0
2018-Mar-28 01:01N 37°57' E 023°38'0 0.0
2018-Mar-28 00:30N 37°57' E 023°38'0 0.0
2018-Mar-28 00:00N 37°57' E 023°38'0 0.0
2018-Mar-27 23:30N 37°57' E 023°38'0 0.0
2018-Mar-27 23:00N 37°57' E 023°38'0 0.0
2018-Mar-27 22:31N 37°57' E 023°38'0 0.0
2018-Mar-27 22:01N 37°57' E 023°38'0 0.0
2018-Mar-27 21:29N 37°57' E 023°38'0 0.0
2018-Mar-27 21:00N 37°57' E 023°38'0 0.0
2018-Mar-27 20:31N 37°57' E 023°38'0 0.0
2018-Mar-27 20:00N 37°57' E 023°38'0 0.0
2018-Mar-27 19:30N 37°57' E 023°38'0 0.0
2018-Mar-27 19:00N 37°57' E 023°38'0 0.0
2018-Mar-27 18:31N 37°57' E 023°38'2 3.4
2018-Mar-27 18:00N 37°56' E 023°36'815.8
2018-Mar-27 17:30N 37°49' E 023°41'816.6
2018-Mar-27 17:00N 37°41' E 023°46'5 0.2
2018-Mar-26 13:53N 37°37' E 023°50'615.9
2018-Mar-26 13:30N 37°40' E 023°43'815.7
2018-Mar-26 13:00N 37°47' E 023°39'815.6
2018-Mar-26 12:29N 37°55' E 023°37'2 4.4
2018-Mar-26 12:00N 37°57' E 023°38'0 0.0
2018-Mar-26 11:30N 37°57' E 023°38'0 0.0
2018-Mar-26 11:00N 37°57' E 023°38'0 0.0
2018-Mar-26 10:29N 37°57' E 023°38'0 0.0
2018-Mar-26 10:00N 37°57' E 023°38'0 0.1
2018-Mar-26 09:30N 37°57' E 023°38'0 0.6
2018-Mar-26 09:00N 37°57' E 023°38'0 0.0
2018-Mar-26 08:30N 37°57' E 023°38'0 0.0
2018-Mar-26 08:01N 37°57' E 023°38'0 0.0
2018-Mar-26 07:30N 37°57' E 023°38'0 0.0
2018-Mar-26 07:00N 37°57' E 023°38'0 0.0
2018-Mar-26 06:30N 37°57' E 023°38'0 0.0
2018-Mar-26 06:00N 37°57' E 023°38'0 0.5
2018-Mar-26 05:31N 37°57' E 023°38'0 0.0
2018-Mar-26 05:00N 37°57' E 023°38'0 0.0
2018-Mar-26 04:30N 37°57' E 023°38'0 0.0
2018-Mar-26 04:00N 37°57' E 023°38'0 0.0
2018-Mar-26 03:28N 37°57' E 023°38'0 0.0
2018-Mar-26 03:00N 37°57' E 023°38'0 0.0
2018-Mar-26 02:30N 37°57' E 023°38'0 0.0
2018-Mar-26 02:00N 37°57' E 023°38'0 0.0
2018-Mar-26 01:30N 37°57' E 023°38'0 0.0
2018-Mar-26 00:59N 37°57' E 023°38'0 0.0
2018-Mar-26 00:29N 37°57' E 023°38'0 0.0
2018-Mar-26 00:00N 37°57' E 023°38'0 0.0
2018-Mar-25 23:28N 37°57' E 023°38'0 0.0
2018-Mar-25 23:00N 37°57' E 023°38'0 0.0
2018-Mar-25 22:31N 37°57' E 023°38'0 0.0
2018-Mar-25 22:00N 37°57' E 023°38'0 0.0
2018-Mar-25 21:30N 37°57' E 023°38'0 0.0
2018-Mar-25 20:59N 37°57' E 023°38'0 0.0
2018-Mar-25 20:28N 37°57' E 023°38'0 0.0
2018-Mar-25 20:00N 37°57' E 023°38'0 0.0
2018-Mar-25 19:28N 37°57' E 023°38'2 4.0
2018-Mar-25 19:00N 37°55' E 023°37'816.9
2018-Mar-25 18:30N 37°47' E 023°41'  
Track history (hours):
 
Tides and Currents Weather Stations Pressure Air Temp Water Temp Dewpoint Dewpoint Depression Visibility Wind Speed Wind Dir Waves Ship Positions

Adamantios Korais

Last reported at 2018-Apr-03 11:36 UTC. Time now 2018-May-27 11:46 UTC.
Position N 37°57' E 023°38'.
Warning: this ship's position is 54 days out of date.

Length 100 m; draft 4.6 m.

Type: Passenger vessel. MMSI: 239410300.

Date/timePositionNaut miles runAvg speedWind from/ knotsBaromVisibWave heightAir tempDewpointWater temp
2018-Apr-03 11:36N 37°57' E 023°38'0 0.1
2018-Apr-03 11:30N 37°57' E 023°38'0 0.0
2018-Apr-03 11:00N 37°57' E 023°38'0 0.0
2018-Apr-03 10:29N 37°57' E 023°38'0 0.0
2018-Apr-03 10:00N 37°57' E 023°38'0 0.0
2018-Apr-03 09:30N 37°57' E 023°38'0 0.0
2018-Apr-03 09:00N 37°57' E 023°38'0 0.0
2018-Apr-03 08:31N 37°57' E 023°38'0 0.0
2018-Apr-03 08:00N 37°57' E 023°38'0 0.0
2018-Apr-03 07:31N 37°57' E 023°38'0 0.0
2018-Apr-03 07:00N 37°57' E 023°38'0 0.0
2018-Apr-03 06:30N 37°57' E 023°38'0 0.0
2018-Apr-03 06:00N 37°57' E 023°38'0 0.0
2018-Apr-03 05:30N 37°57' E 023°38'3 7.0
2018-Apr-03 05:01N 37°53' E 023°38'917.2
2018-Apr-03 04:30N 37°45' E 023°43'7 0.3
2018-Apr-02 05:40N 37°38' E 023°46'316.5
2018-Apr-02 05:28N 37°41' E 023°43'816.7
2018-Apr-02 05:01N 37°48' E 023°38'816.2
2018-Apr-02 04:31N 37°56' E 023°37'1 2.8
2018-Apr-02 04:00N 37°57' E 023°38'0 0.0
2018-Apr-02 03:30N 37°57' E 023°38'0 0.0
2018-Apr-02 03:00N 37°57' E 023°38'0 0.0
2018-Apr-02 02:30N 37°57' E 023°38'0 0.0
2018-Apr-02 02:01N 37°57' E 023°38'0 0.0
2018-Apr-02 01:30N 37°57' E 023°38'0 0.0
2018-Apr-02 01:00N 37°57' E 023°38'0 0.0
2018-Apr-02 00:30N 37°57' E 023°38'0 0.0
2018-Apr-02 00:00N 37°57' E 023°38'0 0.0
2018-Apr-01 23:30N 37°57' E 023°38'0 0.0
2018-Apr-01 23:00N 37°57' E 023°38'0 0.0
2018-Apr-01 22:30N 37°57' E 023°38'0 0.0
2018-Apr-01 22:00N 37°57' E 023°38'0 0.0
2018-Apr-01 21:31N 37°57' E 023°38'0 0.0
2018-Apr-01 21:00N 37°57' E 023°38'0 0.0
2018-Apr-01 20:30N 37°57' E 023°38'0 0.0
2018-Apr-01 20:00N 37°57' E 023°38'0 0.0
2018-Apr-01 19:30N 37°57' E 023°38'1 2.9
2018-Apr-01 19:00N 37°56' E 023°37'714.5
2018-Apr-01 18:30N 37°49' E 023°41'713.9
2018-Apr-01 18:00N 37°43' E 023°44'3 0.1
2018-Mar-31 06:11N 37°40' E 023°43'316.1
2018-Mar-31 05:59N 37°42' E 023°41'816.2
2018-Mar-31 05:30N 37°50' E 023°37'714.0
2018-Mar-31 05:00N 37°57' E 023°38'0 0.1
2018-Mar-31 04:30N 37°57' E 023°38'0 0.0
2018-Mar-31 04:00N 37°57' E 023°38'0 0.0
2018-Mar-31 03:31N 37°57' E 023°38'1 2.8
2018-Mar-31 03:00N 37°56' E 023°37'714.2
2018-Mar-31 02:30N 37°50' E 023°41'11 0.8
2018-Mar-30 13:32N 37°39' E 023°44'115.8
2018-Mar-30 13:30N 37°40' E 023°43'816.0
2018-Mar-30 13:00N 37°47' E 023°39'815.6
2018-Mar-30 12:30N 37°54' E 023°37'2 4.5
2018-Mar-30 12:00N 37°57' E 023°38'0 0.0
2018-Mar-30 11:30N 37°57' E 023°38'0 0.0
2018-Mar-30 11:00N 37°57' E 023°38'0 0.0
2018-Mar-30 10:30N 37°57' E 023°38'0 0.0
2018-Mar-30 10:00N 37°57' E 023°38'0 0.0
2018-Mar-30 09:30N 37°57' E 023°38'0 0.0
2018-Mar-30 09:00N 37°57' E 023°38'0 0.0
2018-Mar-30 08:30N 37°57' E 023°38'0 0.0
2018-Mar-30 08:00N 37°57' E 023°38'0 0.0
2018-Mar-30 07:30N 37°57' E 023°38'0 0.0
2018-Mar-30 07:00N 37°57' E 023°38'0 0.0
2018-Mar-30 06:30N 37°57' E 023°38'0 0.0
2018-Mar-30 06:00N 37°57' E 023°38'0 0.0
2018-Mar-30 05:30N 37°57' E 023°38'0 0.0
2018-Mar-30 05:00N 37°57' E 023°38'0 0.0
2018-Mar-30 04:30N 37°57' E 023°38'0 0.0
2018-Mar-30 04:00N 37°57' E 023°38'0 0.0
2018-Mar-30 03:30N 37°57' E 023°38'0 0.0
2018-Mar-30 02:58N 37°57' E 023°38'0 0.0
2018-Mar-30 02:30N 37°57' E 023°38'0 0.0
2018-Mar-30 02:00N 37°57' E 023°38'0 0.0
2018-Mar-30 01:31N 37°57' E 023°38'0 0.0
2018-Mar-30 01:01N 37°57' E 023°38'0 0.0
2018-Mar-30 00:31N 37°57' E 023°38'0 0.0
2018-Mar-30 00:00N 37°57' E 023°38'0 0.0
2018-Mar-29 23:31N 37°57' E 023°38'0 0.0
2018-Mar-29 22:58N 37°57' E 023°38'0 0.0
2018-Mar-29 22:30N 37°57' E 023°38'0 0.0
2018-Mar-29 22:01N 37°57' E 023°38'0 0.0
2018-Mar-29 21:30N 37°57' E 023°38'0 0.0
2018-Mar-29 21:00N 37°57' E 023°38'0 0.0
2018-Mar-29 20:30N 37°57' E 023°38'0 0.0
2018-Mar-29 20:00N 37°57' E 023°38'0 0.0
2018-Mar-29 19:30N 37°57' E 023°38'0 0.0
2018-Mar-29 19:01N 37°57' E 023°38'0 0.0
2018-Mar-29 18:30N 37°57' E 023°38'4 8.4
2018-Mar-29 18:00N 37°52' E 023°39'817.0
2018-Mar-29 17:30N 37°45' E 023°43'6 0.2
2018-Mar-28 14:46N 37°39' E 023°45'415.2
2018-Mar-28 14:30N 37°42' E 023°41'816.0
2018-Mar-28 14:00N 37°50' E 023°38'713.8
2018-Mar-28 13:30N 37°56' E 023°38'0 0.3
2018-Mar-28 13:00N 37°57' E 023°38'0 0.0
2018-Mar-28 12:30N 37°57' E 023°38'0 0.0
2018-Mar-28 12:01N 37°57' E 023°38'0 0.0
2018-Mar-28 11:30N 37°57' E 023°38'0 0.0
2018-Mar-28 11:00N 37°57' E 023°38'0 0.0
2018-Mar-28 10:31N 37°57' E 023°38'0 0.0
2018-Mar-28 10:01N 37°57' E 023°38'0 0.0
2018-Mar-28 09:30N 37°57' E 023°38'0 0.0
2018-Mar-28 09:00N 37°57' E 023°38'0 0.0
2018-Mar-28 08:30N 37°57' E 023°38'0 0.0
2018-Mar-28 08:00N 37°57' E 023°38'0 0.0
2018-Mar-28 07:30N 37°57' E 023°38'0 0.0
2018-Mar-28 07:00N 37°57' E 023°38'0 0.0
2018-Mar-28 06:30N 37°57' E 023°38'0 0.0
2018-Mar-28 06:00N 37°57' E 023°38'0 0.0
2018-Mar-28 05:31N 37°57' E 023°38'0 0.0
2018-Mar-28 05:00N 37°57' E 023°38'0 0.0
2018-Mar-28 04:27N 37°57' E 023°38'0 0.0
2018-Mar-28 04:00N 37°57' E 023°38'0 0.0
2018-Mar-28 03:30N 37°57' E 023°38'0 0.0
2018-Mar-28 03:01N 37°57' E 023°38'0 0.0
2018-Mar-28 02:29N 37°57' E 023°38'0 0.0
2018-Mar-28 02:00N 37°57' E 023°38'0 0.0
2018-Mar-28 01:28N 37°57' E 023°38'0 0.0
2018-Mar-28 01:01N 37°57' E 023°38'0 0.0
2018-Mar-28 00:30N 37°57' E 023°38'0 0.0
2018-Mar-28 00:00N 37°57' E 023°38'0 0.0
2018-Mar-27 23:30N 37°57' E 023°38'0 0.0
2018-Mar-27 23:00N 37°57' E 023°38'0 0.0
2018-Mar-27 22:31N 37°57' E 023°38'0 0.0
2018-Mar-27 22:01N 37°57' E 023°38'0 0.0
2018-Mar-27 21:29N 37°57' E 023°38'0 0.0
2018-Mar-27 21:00N 37°57' E 023°38'0 0.0
2018-Mar-27 20:31N 37°57' E 023°38'0 0.0
2018-Mar-27 20:00N 37°57' E 023°38'0 0.0
2018-Mar-27 19:30N 37°57' E 023°38'0 0.0
2018-Mar-27 19:00N 37°57' E 023°38'0 0.0
2018-Mar-27 18:31N 37°57' E 023°38'2 3.4
2018-Mar-27 18:00N 37°56' E 023°36'815.8
2018-Mar-27 17:30N 37°49' E 023°41'816.6
2018-Mar-27 17:00N 37°41' E 023°46'5 0.2
2018-Mar-26 13:53N 37°37' E 023°50'615.9
2018-Mar-26 13:30N 37°40' E 023°43'815.7
2018-Mar-26 13:00N 37°47' E 023°39'815.6
2018-Mar-26 12:29N 37°55' E 023°37'2 4.4
2018-Mar-26 12:00N 37°57' E 023°38'0 0.0
2018-Mar-26 11:30N 37°57' E 023°38'0 0.0
2018-Mar-26 11:00N 37°57' E 023°38'0 0.0
2018-Mar-26 10:29N 37°57' E 023°38'0 0.0
2018-Mar-26 10:00N 37°57' E 023°38'0 0.1
2018-Mar-26 09:30N 37°57' E 023°38'0 0.6
2018-Mar-26 09:00N 37°57' E 023°38'0 0.0
2018-Mar-26 08:30N 37°57' E 023°38'0 0.0
2018-Mar-26 08:01N 37°57' E 023°38'0 0.0
2018-Mar-26 07:30N 37°57' E 023°38'0 0.0
2018-Mar-26 07:00N 37°57' E 023°38'0 0.0
2018-Mar-26 06:30N 37°57' E 023°38'0 0.0
2018-Mar-26 06:00N 37°57' E 023°38'0 0.5
2018-Mar-26 05:31N 37°57' E 023°38'0 0.0
2018-Mar-26 05:00N 37°57' E 023°38'0 0.0
2018-Mar-26 04:30N 37°57' E 023°38'0 0.0
2018-Mar-26 04:00N 37°57' E 023°38'0 0.0
2018-Mar-26 03:28N 37°57' E 023°38'0 0.0
2018-Mar-26 03:00N 37°57' E 023°38'0 0.0
2018-Mar-26 02:30N 37°57' E 023°38'0 0.0
2018-Mar-26 02:00N 37°57' E 023°38'0 0.0
2018-Mar-26 01:30N 37°57' E 023°38'0 0.0
2018-Mar-26 00:59N 37°57' E 023°38'0 0.0
2018-Mar-26 00:29N 37°57' E 023°38'0 0.0
2018-Mar-26 00:00N 37°57' E 023°38'0 0.0
2018-Mar-25 23:28N 37°57' E 023°38'0 0.0
2018-Mar-25 23:00N 37°57' E 023°38'0 0.0
2018-Mar-25 22:31N 37°57' E 023°38'0 0.0
2018-Mar-25 22:00N 37°57' E 023°38'0 0.0
2018-Mar-25 21:30N 37°57' E 023°38'0 0.0
2018-Mar-25 20:59N 37°57' E 023°38'0 0.0
2018-Mar-25 20:28N 37°57' E 023°38'0 0.0
2018-Mar-25 20:00N 37°57' E 023°38'0 0.0
2018-Mar-25 19:28N 37°57' E 023°38'2 4.0
2018-Mar-25 19:00N 37°55' E 023°37'816.9
2018-Mar-25 18:30N 37°47' E 023°41'  

Dump ship's entire track history